Flight Track Log - Related Links

Times and Time Zones

All times are in EDT time to prevent confusion due to time zone crossing. See the LBQ792 flight status page for this flight to view local times or setup timezone preferences in your user account.

Time Position Orientation Groundspeed Altitude Reporting Facility
EDT Latitude Longitude Course Direction KTS MPH feet Rate Location/Type
Tue 12:57:36 AM 39.7889 -78.9858 172° South 246 283 15,000  Level Washington Center
Tue 12:58:36 AM 39.7511 -78.9192 126° Southeast 246 283 15,000  Level Washington Center
Tue 12:59:36 AM 39.7175 -78.8503 122° Southeast 246 283 15,000  Level Washington Center
Tue 01:00:36 AM 39.6797 -78.7867 128° Southeast 241 277 15,000  Level Washington Center
Tue 01:01:36 AM 39.6439 -78.7203 125° Southeast 235 270 15,000 -450 Level Washington Center
Tue 01:02:00 AM 40.2949 -79.9189 172° South  Level FlightAware Approximate
Tue 01:02:36 AM 39.6042 -78.6458 125° Southeast 230 265 14,100  Level Washington Center
Tue 01:03:36 AM 39.5642 -78.5742 126° Southeast 240 276 13,200 -1,091 Descending Washington Center
Tue 01:04:37 AM 39.5225 -78.4972 125° Southeast 250 288 11,900 -1,339 Descending Washington Center
Tue 01:05:37 AM 39.4803 -78.4228 126° Southeast 255 293 10,500 -1,412 Descending Washington Center
Tue 01:06:36 AM 39.4425 -78.3489 123° Southeast 255 293 9,100 -750 Descending Washington Center
Tue 01:07:37 AM 39.4064 -78.2856 126° Southeast 244 281 9,000 -150 Descending Washington Center
Tue 01:08:36 AM 39.3703 -78.2200 125° Southeast 233 268 8,800 -504 Descending Washington Center
Tue 01:09:36 AM 39.3322 -78.1514 126° Southeast 228 262 8,000 -793 Descending Washington Center
Tue 01:10:37 AM 39.2961 -78.0858 125° Southeast 228 262 7,200 -793 Descending Washington Center
Tue 01:11:37 AM 39.2578 -78.0200 127° Southeast 228 262 6,400 -850 Descending Washington Center
Tue 01:12:37 AM 39.2197 -77.9492 125° Southeast 228 262 5,500 -706 Descending Washington Center
Tue 01:13:36 AM 39.1833 -77.8836 126° Southeast 228 262 5,000 -252 Descending Washington Center
Tue 01:14:36 AM 39.1469 -77.8236 128° Southeast 228 262 5,000 -189 Level Washington Center
Tue 01:16:46 AM 39.0333 -77.7667 159° South 229 264 4,400 -316 Descending Potomac TRACON
Tue 01:17:46 AM 38.9667 -77.7500 169° South 224 258 4,000 -200 Descending Potomac TRACON
Tue 01:18:46 AM 38.9167 -77.7333 165° South 205 236 4,000  Level Potomac TRACON
Tue 01:19:46 AM 38.8667 -77.7167 165° South 197 227 4,000  Level Potomac TRACON
Tue 01:20:46 AM 38.8167 -77.7000 165° South 190 219 4,000 -368 Level Potomac TRACON
Tue 01:21:40 AM 38.7667 -77.6667 153° Southeast 209 241 3,300 -526 Descending Potomac TRACON
Tue 01:22:40 AM 38.7333 -77.6167 131° Southeast 206 237 3,000 -150 Descending Potomac TRACON
Tue 01:23:40 AM 38.7167 -77.5500 108° East 193 222 3,000  Level Potomac TRACON
Tue 01:24:40 AM 38.7333 -77.4833 72° East 198 228 3,000  Level Potomac TRACON
Tue 01:25:40 AM 38.7833 -77.4667 15° North 203 234 3,000 -368 Level Potomac TRACON
Tue 01:26:34 AM 38.8333 -77.4667 360° North 202 232 2,300 -842 Descending Potomac TRACON
Tue 01:27:34 AM 38.8833 -77.4667 360° North 170 196 1,400 -750 Descending Potomac TRACON
Tue 01:28:34 AM 38.9167 -77.4667 360° North 105 121 800 -600 Descending Potomac TRACON

Login

Don't have an account? Register now (free) for customized features, flight alerts, and more!